createdAt,value
2019-03-16T00:03:51.112Z,82.70
2019-03-16T00:08:52.668Z,81.94
2019-03-16T00:13:54.240Z,83.45
2019-03-16T00:18:55.924Z,78.24
2019-03-16T00:23:57.581Z,74.91
2019-03-16T00:28:59.472Z,73.24
2019-03-16T00:34:01.194Z,70.32
2019-03-16T00:39:06.554Z,70.20
2019-03-16T00:44:08.112Z,65.89
2019-03-16T00:49:09.666Z,63.79
2019-03-16T00:54:11.223Z,64.07
2019-03-16T00:59:12.829Z,65.66
2019-03-16T01:04:14.576Z,64.43
2019-03-16T01:09:16.126Z,64.33
2019-03-16T01:14:17.664Z,64.91
2019-03-16T01:19:19.248Z,63.72
2019-03-16T01:24:20.799Z,65.55
2019-03-16T01:29:22.380Z,64.52
2019-03-16T01:34:24.012Z,62.54
2019-03-16T01:39:25.560Z,61.45
2019-03-16T01:44:27.112Z,62.44
2019-03-16T01:49:28.662Z,62.17
2019-03-16T01:54:30.219Z,60.73
2019-03-16T01:59:31.831Z,60.61
2019-03-16T02:04:33.490Z,60.72
2019-03-16T02:09:35.195Z,61.19
2019-03-16T02:14:36.748Z,62.05
2019-03-16T02:19:38.441Z,62.91
2019-03-16T02:24:40.000Z,63.27
2019-03-16T02:29:41.593Z,64.13
2019-03-16T02:34:43.204Z,63.87
2019-03-16T02:39:44.764Z,63.40
2019-03-16T02:44:46.316Z,62.40
2019-03-16T02:49:47.877Z,63.33
2019-03-16T02:54:49.465Z,63.69
2019-03-16T02:59:51.055Z,62.97
2019-03-16T03:04:52.608Z,63.29
2019-03-16T03:09:54.164Z,63.83
2019-03-16T03:14:55.748Z,64.07
2019-03-16T03:19:57.299Z,65.96
2019-03-16T03:24:58.899Z,66.39
2019-03-16T03:30:00.519Z,65.69
2019-03-16T03:35:04.039Z,65.24
2019-03-16T03:40:09.487Z,66.54
2019-03-16T03:45:12.390Z,66.96
2019-03-16T03:50:14.760Z,67.11
2019-03-16T03:55:16.303Z,67.58
2019-03-16T04:00:18.247Z,67.44
2019-03-16T04:05:19.853Z,68.31
2019-03-16T04:10:21.500Z,68.16
2019-03-16T04:15:23.139Z,68.52
2019-03-16T04:20:24.813Z,68.62
2019-03-16T04:25:26.390Z,68.81
2019-03-16T04:30:27.903Z,67.57
2019-03-16T04:35:29.562Z,66.80
2019-03-16T04:40:31.140Z,67.31
2019-03-16T04:45:32.795Z,65.34
2019-03-16T04:50:34.383Z,65.26
2019-03-16T04:55:36.073Z,65.03
2019-03-16T05:00:37.623Z,64.46
2019-03-16T05:05:39.166Z,63.48
2019-03-16T05:10:40.758Z,60.38
2019-03-16T05:15:42.307Z,61.46
2019-03-16T05:20:44.952Z,60.90
2019-03-16T05:25:46.598Z,60.05
2019-03-16T05:30:48.351Z,60.29
2019-03-16T05:35:50.151Z,60.77
2019-03-16T05:40:51.689Z,60.34
2019-03-16T05:45:53.240Z,60.63
2019-03-16T05:50:57.351Z,60.01
2019-03-16T05:55:58.253Z,59.03
2019-03-16T06:00:59.841Z,59.77
2019-03-16T06:06:01.453Z,59.13
2019-03-16T06:11:03.294Z,59.30
2019-03-16T06:16:04.843Z,59.83
2019-03-16T06:21:06.446Z,59.81
2019-03-16T06:26:07.998Z,58.16
2019-03-16T06:31:09.555Z,58.52
2019-03-16T06:36:11.429Z,58.43
2019-03-16T06:41:13.067Z,57.39
2019-03-16T06:46:14.620Z,57.08
2019-03-16T06:51:16.731Z,56.30
2019-03-16T06:56:18.295Z,57.12
2019-03-16T07:01:19.847Z,57.80
2019-03-16T07:06:21.405Z,57.84
2019-03-16T07:11:23.168Z,57.86
2019-03-16T07:16:25.446Z,57.55
2019-03-16T07:21:27.308Z,57.53
2019-03-16T07:26:30.703Z,57.13
2019-03-16T07:31:32.925Z,58.17
2019-03-16T07:36:36.263Z,58.40
2019-03-16T07:41:38.888Z,55.73
2019-03-16T07:46:40.689Z,56.19
2019-03-16T07:51:43.593Z,56.52
2019-03-16T07:56:45.491Z,57.51
2019-03-16T08:01:47.059Z,56.89
2019-03-16T08:06:48.963Z,56.56
2019-03-16T08:11:50.666Z,56.04
2019-03-16T08:16:52.983Z,56.02
2019-03-16T08:21:54.559Z,54.74
2019-03-16T08:26:56.422Z,56.86
2019-03-16T08:31:58.181Z,55.79
2019-03-16T08:36:59.807Z,53.53
2019-03-16T08:42:01.372Z,53.06
2019-03-16T08:47:03.025Z,54.17
2019-03-16T08:52:04.596Z,52.11
2019-03-16T08:57:06.180Z,52.49
2019-03-16T09:02:07.781Z,52.92
2019-03-16T09:07:09.551Z,52.68
2019-03-16T09:12:11.346Z,54.43
2019-03-16T09:17:12.986Z,54.24
2019-03-16T09:22:15.045Z,55.91
2019-03-16T09:27:16.604Z,54.11
2019-03-16T09:32:18.156Z,53.53
2019-03-16T09:37:19.831Z,52.81
2019-03-16T09:42:21.421Z,53.98
2019-03-16T09:47:22.971Z,52.48
2019-03-16T09:52:25.353Z,53.01
2019-03-16T09:57:26.911Z,51.93
2019-03-16T10:02:28.656Z,51.71
2019-03-16T10:07:30.434Z,51.99
2019-03-16T10:12:32.010Z,54.41
2019-03-16T10:17:33.554Z,53.04
2019-03-16T10:22:35.114Z,52.13
2019-03-16T10:27:36.676Z,51.91
2019-03-16T10:32:38.362Z,53.18
2019-03-16T10:37:40.114Z,54.27
2019-03-16T10:42:41.671Z,54.50
2019-03-16T10:47:43.756Z,54.89
2019-03-16T10:52:45.307Z,54.79
2019-03-16T10:57:46.849Z,55.06
2019-03-16T11:02:48.508Z,52.47
2019-03-16T11:07:50.078Z,53.01
2019-03-16T11:12:51.683Z,53.48
2019-03-16T11:17:53.261Z,52.61
2019-03-16T11:22:54.824Z,50.62
2019-03-16T11:27:56.437Z,50.94
2019-03-16T11:32:57.993Z,49.46
2019-03-16T11:37:59.625Z,50.86
2019-03-16T11:43:01.226Z,49.56
2019-03-16T11:48:03.007Z,49.76
2019-03-16T11:53:04.569Z,50.63
2019-03-16T11:58:06.132Z,51.75
2019-03-16T12:03:07.839Z,50.94
2019-03-16T12:08:09.397Z,49.92
2019-03-16T12:13:17.127Z,48.60
2019-03-16T12:18:14.420Z,47.27
2019-03-16T12:23:15.976Z,46.75
2019-03-16T12:28:17.566Z,45.10
2019-03-16T12:33:19.216Z,44.76
2019-03-16T12:38:21.200Z,44.31
2019-03-16T12:43:24.049Z,45.62
2019-03-16T12:48:25.646Z,46.43
2019-03-16T12:53:27.205Z,44.78
2019-03-16T12:58:28.791Z,43.35
2019-03-16T13:03:30.402Z,45.98
2019-03-16T13:08:32.522Z,46.62
2019-03-16T13:13:34.065Z,47.70
2019-03-16T13:18:35.638Z,45.89
2019-03-16T13:23:37.198Z,48.10
2019-03-16T13:28:38.807Z,46.86
2019-03-16T13:33:40.399Z,48.13
2019-03-16T13:38:42.048Z,48.05
2019-03-16T13:43:43.612Z,48.45
2019-03-16T13:48:45.210Z,48.14
2019-03-16T13:53:46.804Z,50.07
2019-03-16T13:58:48.354Z,49.70
2019-03-16T14:03:49.928Z,49.53
2019-03-16T14:08:51.554Z,51.49
2019-03-16T14:13:53.237Z,50.25
2019-03-16T14:18:54.788Z,48.34
2019-03-16T14:23:56.373Z,49.44
2019-03-16T14:28:57.925Z,48.95
2019-03-16T14:33:59.486Z,50.19
2019-03-16T14:39:01.453Z,49.04
2019-03-16T14:44:03.830Z,49.07
2019-03-16T14:49:05.429Z,48.11
2019-03-16T14:54:06.975Z,50.58
2019-03-16T14:59:08.534Z,45.66
2019-03-16T15:04:10.090Z,48.03
2019-03-16T15:09:11.677Z,50.11
2019-03-16T15:14:21.455Z,51.41
2019-03-16T15:19:16.759Z,54.17
2019-03-16T15:24:18.646Z,56.72
2019-03-16T15:29:21.298Z,57.50
2019-03-16T15:34:22.853Z,57.68
2019-03-16T15:39:24.518Z,56.52
2019-03-16T15:44:26.977Z,56.86
2019-03-16T15:49:28.539Z,58.56
2019-03-16T15:54:30.089Z,58.47
2019-03-16T15:59:31.715Z,58.44
2019-03-16T16:04:33.487Z,58.45
2019-03-16T16:09:35.057Z,58.63
2019-03-16T16:14:36.753Z,57.82
2019-03-16T16:19:38.671Z,57.97
2019-03-16T16:24:40.210Z,58.65
2019-03-16T16:29:41.779Z,58.07
2019-03-16T16:34:43.439Z,60.17
2019-03-16T16:39:46.220Z,59.95
2019-03-16T16:44:48.118Z,58.90
2019-03-16T16:49:50.840Z,59.58
2019-03-16T16:54:52.640Z,59.70
2019-03-16T16:59:54.212Z,59.66
2019-03-16T17:04:55.765Z,59.24
2019-03-16T17:09:57.581Z,59.36
2019-03-16T17:14:59.135Z,60.27
2019-03-16T17:20:00.684Z,61.29
2019-03-16T17:25:04.794Z,61.25
2019-03-16T17:30:14.817Z,62.17
2019-03-16T17:35:17.385Z,62.25
2019-03-16T17:40:19.100Z,62.54
2019-03-16T17:45:20.675Z,62.91
2019-03-16T17:50:22.396Z,63.33
2019-03-16T17:55:24.059Z,63.11
2019-03-16T18:00:25.615Z,64.07
2019-03-16T18:05:27.160Z,64.79
2019-03-16T18:10:28.726Z,64.99
2019-03-16T18:15:30.394Z,65.15
2019-03-16T18:20:32.065Z,66.19
2019-03-16T18:25:33.635Z,66.58
2019-03-16T18:30:37.150Z,66.83
2019-03-16T18:35:39.308Z,67.28
2019-03-16T18:40:40.936Z,68.18
2019-03-16T18:45:42.504Z,68.69
2019-03-16T18:50:44.161Z,69.95
2019-03-16T18:55:45.727Z,70.43
2019-03-16T19:00:47.359Z,71.01
2019-03-16T19:05:49.606Z,71.83
2019-03-16T19:10:53.186Z,71.87
2019-03-16T19:15:54.881Z,71.87
2019-03-16T19:20:57.540Z,71.46
2019-03-16T19:25:59.107Z,71.87
2019-03-16T19:31:00.695Z,71.96
2019-03-16T19:36:02.489Z,71.81
2019-03-16T19:41:04.230Z,71.84
2019-03-16T19:46:05.790Z,72.06
2019-03-16T19:51:07.445Z,72.40
2019-03-16T19:56:09.114Z,73.04
2019-03-16T20:01:10.736Z,72.44
2019-03-16T20:06:24.761Z,72.74
2019-03-16T20:11:16.317Z,72.94
2019-03-16T20:16:17.874Z,72.14
2019-03-16T20:21:19.414Z,70.18
2019-03-16T20:26:21.008Z,70.18
2019-03-16T20:31:22.565Z,70.04
2019-03-16T20:36:24.501Z,69.92
2019-03-16T20:41:35.690Z,70.28
2019-03-16T20:46:30.865Z,71.24
2019-03-16T20:51:32.661Z,71.62
2019-03-16T20:56:34.345Z,71.67
2019-03-16T21:01:37.036Z,72.17
2019-03-16T21:06:38.710Z,72.25
2019-03-16T21:11:41.508Z,72.34
2019-03-16T21:16:43.060Z,72.64
2019-03-16T21:21:44.644Z,72.64
2019-03-16T21:26:52.674Z,72.65
2019-03-16T21:31:50.169Z,72.83
2019-03-16T21:36:51.721Z,72.92
2019-03-16T21:41:53.358Z,72.65
2019-03-16T21:46:54.899Z,72.30
2019-03-16T21:51:56.460Z,72.08
2019-03-16T21:56:58.082Z,73.27
2019-03-16T22:01:59.713Z,73.50
2019-03-16T22:07:01.316Z,73.51
2019-03-16T22:12:03.231Z,73.79
2019-03-16T22:17:04.792Z,74.54
2019-03-16T22:22:06.390Z,74.17
2019-03-16T22:27:07.940Z,74.56
2019-03-16T22:32:09.546Z,74.69
